createdAt,value
2019-03-17T00:00:12.167Z,5.40
2019-03-17T00:02:41.678Z,3.50
2019-03-17T00:05:11.453Z,1.90
2019-03-17T00:07:42.533Z,5.10
2019-03-17T00:10:11.341Z,6.20
2019-03-17T00:12:40.335Z,4.53
2019-03-17T00:15:09.398Z,3.83
2019-03-17T00:17:38.043Z,5.00
2019-03-17T00:20:07.954Z,3.17
2019-03-17T00:22:36.571Z,5.10
2019-03-17T00:25:09.749Z,3.90
2019-03-17T00:27:37.361Z,3.47
2019-03-17T00:30:08.950Z,2.80
2019-03-17T00:32:37.591Z,4.63
2019-03-17T00:35:06.883Z,3.17
2019-03-17T00:37:35.682Z,4.00
2019-03-17T00:40:08.467Z,4.20
2019-03-17T00:42:37.083Z,4.10
2019-03-17T00:45:11.382Z,3.43
2019-03-17T00:47:39.376Z,3.50
2019-03-17T00:50:10.461Z,3.27
2019-03-17T00:52:39.185Z,3.80
2019-03-17T00:55:08.045Z,4.37
2019-03-17T00:57:36.729Z,2.40
2019-03-17T01:00:32.386Z,5.07
2019-03-17T01:03:01.103Z,4.80
2019-03-17T01:05:31.247Z,2.90
2019-03-17T01:08:00.495Z,4.43
2019-03-17T01:10:29.136Z,4.63
2019-03-17T01:12:57.882Z,4.07
2019-03-17T01:15:26.663Z,4.30
2019-03-17T01:17:55.393Z,5.50
2019-03-17T01:20:24.077Z,5.10
2019-03-17T01:22:52.811Z,4.07
2019-03-17T01:25:21.434Z,4.40
2019-03-17T01:27:50.226Z,3.13
2019-03-17T01:30:18.916Z,3.47
2019-03-17T01:32:47.665Z,3.10
2019-03-17T01:35:16.503Z,2.42
2019-03-17T01:37:45.221Z,3.00
2019-03-17T01:40:13.961Z,3.40
2019-03-17T01:42:42.771Z,3.03
2019-03-17T01:45:11.403Z,3.97
2019-03-17T01:47:40.144Z,2.30
2019-03-17T01:50:09.732Z,2.20
2019-03-17T01:52:38.438Z,2.53
2019-03-17T01:55:07.851Z,2.03
2019-03-17T01:57:36.575Z,2.30
2019-03-17T02:00:08.394Z,2.77
2019-03-17T02:02:37.107Z,1.80
2019-03-17T02:05:07.736Z,1.90
2019-03-17T02:07:36.499Z,2.30
2019-03-17T02:10:06.984Z,1.60
2019-03-17T02:12:35.839Z,1.93
2019-03-17T02:15:07.867Z,1.80
2019-03-17T02:17:36.617Z,1.57
2019-03-17T02:20:08.143Z,1.85
2019-03-17T02:22:36.865Z,1.10
2019-03-17T02:25:06.686Z,1.60
2019-03-17T02:27:35.408Z,2.27
2019-03-17T02:30:05.481Z,1.87
2019-03-17T02:32:34.012Z,1.83
2019-03-17T02:35:02.648Z,2.03
2019-03-17T02:37:31.414Z,2.23
2019-03-17T02:40:00.547Z,1.23
2019-03-17T02:42:29.838Z,0.93
2019-03-17T02:44:58.689Z,1.67
2019-03-17T02:47:27.380Z,2.20
2019-03-17T02:49:56.070Z,1.67
2019-03-17T02:52:24.854Z,1.33
2019-03-17T02:54:53.582Z,1.10
2019-03-17T02:57:22.298Z,1.72
2019-03-17T02:59:51.072Z,1.90
2019-03-17T03:02:19.783Z,2.30
2019-03-17T03:04:48.614Z,2.27
2019-03-17T03:07:17.321Z,2.10
2019-03-17T03:09:46.067Z,1.83
2019-03-17T03:12:14.777Z,1.20
2019-03-17T03:14:43.558Z,1.83
2019-03-17T03:17:12.763Z,2.27
2019-03-17T03:19:41.470Z,2.03
2019-03-17T03:22:10.210Z,0.90
2019-03-17T03:24:38.902Z,1.27
2019-03-17T03:27:07.581Z,1.80
2019-03-17T03:29:36.241Z,1.47
2019-03-17T03:32:05.550Z,1.40
2019-03-17T03:34:34.477Z,1.80
2019-03-17T03:37:03.032Z,1.53
2019-03-17T03:39:31.765Z,1.80
2019-03-17T03:42:00.785Z,1.93
2019-03-17T03:44:29.509Z,1.43
2019-03-17T03:46:58.126Z,2.80
2019-03-17T03:49:26.716Z,1.57
2019-03-17T03:51:55.270Z,1.30
2019-03-17T03:54:23.985Z,2.20
2019-03-17T03:56:52.641Z,1.70
2019-03-17T03:59:21.371Z,1.95
2019-03-17T04:01:50.029Z,2.77
2019-03-17T04:04:18.689Z,2.15
2019-03-17T04:06:47.309Z,2.17
2019-03-17T04:09:16.001Z,2.63
2019-03-17T04:11:44.766Z,1.97
2019-03-17T04:14:13.584Z,2.33
2019-03-17T04:16:42.207Z,2.27
2019-03-17T04:19:10.976Z,2.13
2019-03-17T04:21:39.607Z,1.83
2019-03-17T04:24:08.335Z,2.73
2019-03-17T04:26:37.058Z,2.60
2019-03-17T04:29:05.793Z,2.03
2019-03-17T04:31:34.698Z,3.17
2019-03-17T04:34:03.413Z,2.10
2019-03-17T04:36:40.171Z,1.73
2019-03-17T04:39:02.664Z,4.60
2019-03-17T04:41:31.275Z,2.60
2019-03-17T04:43:59.929Z,2.43
2019-03-17T04:46:28.658Z,2.00
2019-03-17T04:48:57.545Z,2.30
2019-03-17T04:51:26.429Z,3.67
2019-03-17T04:53:55.199Z,2.50
2019-03-17T04:56:24.046Z,2.67
2019-03-17T04:58:52.643Z,1.70
2019-03-17T05:01:21.310Z,3.00
2019-03-17T05:03:50.100Z,2.85
2019-03-17T05:06:18.726Z,3.20
2019-03-17T05:08:47.352Z,3.30
2019-03-17T05:11:16.244Z,3.37
2019-03-17T05:13:44.983Z,2.33
2019-03-17T05:16:13.673Z,2.37
2019-03-17T05:18:42.498Z,3.33
2019-03-17T05:21:11.042Z,1.98
2019-03-17T05:23:39.591Z,3.83
2019-03-17T05:26:08.241Z,1.90
2019-03-17T05:28:37.003Z,0.73
2019-03-17T05:31:05.703Z,0.90
2019-03-17T05:33:34.393Z,0.70
2019-03-17T05:36:03.170Z,0.70
2019-03-17T05:38:31.793Z,0.90
2019-03-17T05:41:00.623Z,2.10
2019-03-17T05:43:29.299Z,1.07
2019-03-17T05:45:57.926Z,0.90
2019-03-17T05:48:26.638Z,1.00
2019-03-17T05:50:55.933Z,1.10
2019-03-17T05:53:24.775Z,1.20
2019-03-17T05:55:53.467Z,0.30
2019-03-17T05:58:22.122Z,0.45
2019-03-17T06:00:50.806Z,0.60
2019-03-17T06:03:19.658Z,0.30
2019-03-17T06:05:48.351Z,0.47
2019-03-17T06:08:17.041Z,0.50
2019-03-17T06:10:45.931Z,0.40
2019-03-17T06:13:14.645Z,0.47
2019-03-17T06:15:43.365Z,0.40
2019-03-17T06:18:12.102Z,0.50
2019-03-17T06:20:40.851Z,0.30
2019-03-17T06:23:09.474Z,0.60
2019-03-17T06:25:38.118Z,0.50
2019-03-17T06:28:06.795Z,0.53
2019-03-17T06:30:35.567Z,0.70
2019-03-17T06:33:04.902Z,0.50
2019-03-17T06:35:33.772Z,0.50
2019-03-17T06:38:02.451Z,0.40
2019-03-17T06:40:31.181Z,0.30
2019-03-17T06:42:59.928Z,0.40
2019-03-17T06:45:28.661Z,0.57
2019-03-17T06:47:57.350Z,0.50
2019-03-17T06:50:26.240Z,0.50
2019-03-17T06:52:54.971Z,0.80
2019-03-17T06:55:23.693Z,0.50
2019-03-17T06:57:52.358Z,0.40
2019-03-17T07:00:21.066Z,0.50
2019-03-17T07:02:49.858Z,0.60
2019-03-17T07:05:18.394Z,1.00
2019-03-17T07:07:47.053Z,0.40
2019-03-17T07:10:15.872Z,0.30
2019-03-17T07:12:44.713Z,0.60
2019-03-17T07:15:13.543Z,0.80
2019-03-17T07:17:42.302Z,0.37
2019-03-17T07:20:13.452Z,0.70
2019-03-17T07:22:42.113Z,0.53
2019-03-17T07:25:10.956Z,0.57
2019-03-17T07:27:40.440Z,0.83
2019-03-17T07:30:14.733Z,0.35
2019-03-17T07:32:43.467Z,0.90
2019-03-17T07:35:12.264Z,0.57
2019-03-17T07:37:41.706Z,0.65
2019-03-17T07:40:12.281Z,0.93
2019-03-17T07:42:42.446Z,0.60
2019-03-17T07:45:12.702Z,0.68
2019-03-17T07:47:42.249Z,0.83
2019-03-17T07:50:14.497Z,0.72
2019-03-17T07:52:44.589Z,0.80
2019-03-17T07:55:13.479Z,1.22
2019-03-17T07:57:42.360Z,0.67
2019-03-17T08:00:15.376Z,0.93
2019-03-17T08:02:44.913Z,0.90
2019-03-17T08:05:13.767Z,0.60
2019-03-17T08:07:43.204Z,0.70
2019-03-17T08:10:13.788Z,0.43
2019-03-17T08:12:42.783Z,0.70
2019-03-17T08:15:13.883Z,0.60
2019-03-17T08:17:42.576Z,0.60
2019-03-17T08:20:16.347Z,0.70
2019-03-17T08:22:55.534Z,0.40
2019-03-17T08:25:24.323Z,0.67
2019-03-17T08:27:53.054Z,1.23
2019-03-17T08:30:21.901Z,0.90
2019-03-17T08:32:51.453Z,0.90
2019-03-17T08:35:20.064Z,0.62
2019-03-17T08:37:50.981Z,0.80
2019-03-17T08:40:23.308Z,1.00
2019-03-17T08:42:51.848Z,0.80
2019-03-17T08:45:21.934Z,1.22
2019-03-17T08:47:57.759Z,0.87
2019-03-17T08:50:23.106Z,0.47
2019-03-17T08:52:51.754Z,0.67
2019-03-17T08:55:20.484Z,1.30
2019-03-17T08:57:49.763Z,1.33
2019-03-17T09:00:19.606Z,1.10
2019-03-17T09:02:48.871Z,0.50
2019-03-17T09:05:17.596Z,0.50
2019-03-17T09:07:46.339Z,1.10
2019-03-17T09:10:18.197Z,1.20
2019-03-17T09:12:47.244Z,0.87
2019-03-17T09:15:16.013Z,1.07
2019-03-17T09:17:44.776Z,2.00
2019-03-17T09:20:16.619Z,1.13
2019-03-17T09:22:45.463Z,1.17
2019-03-17T09:25:14.184Z,0.90
2019-03-17T09:27:45.087Z,1.25
2019-03-17T09:30:15.649Z,0.45
2019-03-17T09:32:46.349Z,0.60
2019-03-17T09:35:17.414Z,0.90
2019-03-17T09:37:54.426Z,0.30
2019-03-17T09:40:23.219Z,0.50
2019-03-17T09:42:52.085Z,0.30
2019-03-17T09:45:21.042Z,0.30
2019-03-17T09:47:50.080Z,0.53
2019-03-17T09:50:20.760Z,0.57
2019-03-17T09:52:50.316Z,0.73
2019-03-17T09:55:19.450Z,0.40
2019-03-17T09:57:48.610Z,0.30
2019-03-17T10:00:21.641Z,0.33
2019-03-17T10:02:52.458Z,0.33
2019-03-17T10:05:23.697Z,0.50
2019-03-17T10:07:57.690Z,0.40
2019-03-17T10:10:28.358Z,0.37
2019-03-17T10:12:59.091Z,0.30
2019-03-17T10:15:29.002Z,0.40
2019-03-17T10:17:58.212Z,0.60
2019-03-17T10:20:27.858Z,0.50
2019-03-17T10:22:56.778Z,0.47
2019-03-17T10:25:25.784Z,0.40
2019-03-17T10:27:54.932Z,0.40
2019-03-17T10:30:24.135Z,0.40
2019-03-17T10:32:53.219Z,0.47
2019-03-17T10:35:22.260Z,0.90
2019-03-17T10:37:51.202Z,0.73
2019-03-17T10:40:23.632Z,0.45
2019-03-17T10:42:52.741Z,0.70
2019-03-17T10:45:23.304Z,0.60
2019-03-17T10:47:54.512Z,0.70
2019-03-17T10:50:28.253Z,0.60
2019-03-17T10:52:57.152Z,0.50
2019-03-17T10:55:27.740Z,0.40
2019-03-17T10:57:58.268Z,0.50
2019-03-17T11:00:33.287Z,0.50
2019-03-17T11:03:02.808Z,0.70
2019-03-17T11:05:38.524Z,0.60
2019-03-17T11:08:07.603Z,0.53
2019-03-17T11:10:39.586Z,0.37
2019-03-17T11:13:08.796Z,0.60
2019-03-17T11:15:37.608Z,0.33
2019-03-17T11:18:08.950Z,0.33
2019-03-17T11:20:39.636Z,0.50
2019-03-17T11:23:08.900Z,0.50
2019-03-17T11:25:40.917Z,0.40
2019-03-17T11:28:11.054Z,0.40
2019-03-17T11:30:42.936Z,0.40
2019-03-17T11:33:16.504Z,0.60
2019-03-17T11:35:47.025Z,0.60
2019-03-17T11:38:16.503Z,0.50
2019-03-17T11:40:45.356Z,0.70
2019-03-17T11:43:15.638Z,0.70
2019-03-17T11:45:44.787Z,0.80
2019-03-17T11:48:13.713Z,0.57
2019-03-17T11:50:44.412Z,0.70
2019-03-17T11:53:16.617Z,0.83
2019-03-17T11:55:48.279Z,0.90
2019-03-17T11:58:17.736Z,0.40
2019-03-17T12:00:49.665Z,0.63
2019-03-17T12:03:19.952Z,0.50
2019-03-17T12:05:52.257Z,1.10
2019-03-17T12:08:21.548Z,1.90
2019-03-17T12:10:52.411Z,1.63
2019-03-17T12:13:24.830Z,1.10
2019-03-17T12:16:09.203Z,0.90
2019-03-17T12:18:37.035Z,0.80
2019-03-17T12:21:09.415Z,0.67
2019-03-17T12:23:43.645Z,1.13
2019-03-17T12:26:14.054Z,0.53
2019-03-17T12:28:43.793Z,1.20
2019-03-17T12:31:23.178Z,0.50
2019-03-17T12:33:49.019Z,0.50
2019-03-17T12:36:19.162Z,1.02
2019-03-17T12:38:50.802Z,0.73
2019-03-17T12:41:27.785Z,0.70
2019-03-17T12:43:56.632Z,0.80
2019-03-17T12:46:28.795Z,0.40
2019-03-17T12:48:59.524Z,0.60
2019-03-17T12:51:31.356Z,0.70
2019-03-17T12:54:00.098Z,0.63
2019-03-17T12:56:43.200Z,0.70
2019-03-17T12:59:24.215Z,0.60
2019-03-17T13:01:52.065Z,0.60
2019-03-17T13:04:23.124Z,0.70
2019-03-17T13:06:54.378Z,1.25
2019-03-17T13:09:37.955Z,0.40
2019-03-17T13:12:23.333Z,0.50
2019-03-17T13:15:05.225Z,0.60
2019-03-17T13:17:51.534Z,0.85
2019-03-17T13:20:38.248Z,1.22
2019-03-17T13:23:26.307Z,0.93
2019-03-17T13:26:16.901Z,0.80
2019-03-17T13:29:05.241Z,1.00
2019-03-17T13:31:56.859Z,0.60
2019-03-17T13:34:33.887Z,0.70
2019-03-17T13:37:06.836Z,0.60
2019-03-17T13:39:39.242Z,1.13
2019-03-17T13:42:08.024Z,0.43
2019-03-17T13:44:36.970Z,0.60
2019-03-17T13:47:07.826Z,0.80
2019-03-17T13:49:37.420Z,0.43
2019-03-17T13:52:06.432Z,0.50
2019-03-17T13:54:35.220Z,0.85
2019-03-17T13:57:03.940Z,0.60
2019-03-17T13:59:32.682Z,0.43
2019-03-17T14:02:01.544Z,0.40
2019-03-17T14:04:30.384Z,0.90
2019-03-17T14:06:59.088Z,0.37
2019-03-17T14:09:27.834Z,1.17
2019-03-17T14:11:56.733Z,0.70
2019-03-17T14:14:25.626Z,0.70
2019-03-17T14:16:56.842Z,0.80
2019-03-17T14:19:25.733Z,0.80
2019-03-17T14:21:56.263Z,1.70
2019-03-17T14:24:25.104Z,0.40
2019-03-17T14:26:53.859Z,0.80
2019-03-17T14:29:22.593Z,0.50
2019-03-17T14:31:53.891Z,0.85
2019-03-17T14:34:24.007Z,0.75
2019-03-17T14:36:52.746Z,0.70
2019-03-17T14:39:40.626Z,1.42
2019-03-17T14:42:14.439Z,0.70
2019-03-17T14:44:44.252Z,0.50
2019-03-17T14:47:26.424Z,0.62
2019-03-17T14:50:02.879Z,0.50
2019-03-17T14:52:46.871Z,1.03
2019-03-17T14:55:30.258Z,0.43
2019-03-17T14:58:12.533Z,0.60
2019-03-17T15:00:59.398Z,0.87
2019-03-17T15:03:54.932Z,1.17
2019-03-17T15:06:41.207Z,0.53
2019-03-17T15:09:32.942Z,0.68
2019-03-17T15:12:17.459Z,0.60
2019-03-17T15:14:59.807Z,0.63
2019-03-17T15:17:55.414Z,0.67
2019-03-17T15:20:30.525Z,0.53
2019-03-17T15:23:16.942Z,0.80
2019-03-17T15:26:06.226Z,0.70
2019-03-17T15:28:50.381Z,0.40
2019-03-17T15:31:34.396Z,0.60
2019-03-17T15:34:04.186Z,1.23
2019-03-17T15:36:47.405Z,0.80
2019-03-17T15:39:32.991Z,0.82
2019-03-17T15:42:19.440Z,0.70
2019-03-17T15:45:03.855Z,0.87
2019-03-17T15:47:46.382Z,0.37
2019-03-17T15:50:32.302Z,0.50
2019-03-17T15:53:16.330Z,0.70
2019-03-17T15:55:58.397Z,0.90
2019-03-17T15:58:36.920Z,0.73
2019-03-17T16:01:07.313Z,0.50
2019-03-17T16:03:50.813Z,0.50
2019-03-17T16:06:35.200Z,0.60
2019-03-17T16:09:19.725Z,0.87
2019-03-17T16:12:05.239Z,0.83
2019-03-17T16:14:47.153Z,1.20
2019-03-17T16:17:35.362Z,0.47
2019-03-17T16:20:20.962Z,0.60
2019-03-17T16:23:14.300Z,0.63
2019-03-17T16:26:09.143Z,1.40
2019-03-17T16:31:45.909Z,0.90
2019-03-17T16:34:29.350Z,0.60
2019-03-17T16:37:14.317Z,0.40
2019-03-17T16:43:04.887Z,0.63
2019-03-17T16:45:51.178Z,0.37
2019-03-17T16:48:35.239Z,1.00
2019-03-17T16:51:17.827Z,0.95
2019-03-17T16:54:01.750Z,0.77
2019-03-17T16:56:44.763Z,0.90
2019-03-17T16:59:20.996Z,0.82
2019-03-17T17:01:53.692Z,0.80
2019-03-17T17:04:24.975Z,0.57
2019-03-17T17:07:03.649Z,0.97
2019-03-17T17:09:36.107Z,1.07
2019-03-17T17:12:07.740Z,0.85
2019-03-17T17:14:38.136Z,0.70
2019-03-17T17:17:08.536Z,0.82
2019-03-17T17:19:38.790Z,0.70
2019-03-17T17:22:10.514Z,0.30
2019-03-17T17:24:40.612Z,0.53
2019-03-17T17:27:11.158Z,1.40
2019-03-17T17:29:44.303Z,0.57
2019-03-17T17:32:14.081Z,0.83
2019-03-17T17:34:43.268Z,0.90
2019-03-17T17:37:12.120Z,0.95
2019-03-17T17:39:40.854Z,0.83
2019-03-17T17:42:10.382Z,1.17
2019-03-17T17:44:39.855Z,1.10
2019-03-17T17:47:08.507Z,1.07
2019-03-17T17:49:37.306Z,1.00
2019-03-17T17:52:06.097Z,1.30
2019-03-17T17:54:34.892Z,1.20
2019-03-17T17:57:03.566Z,0.67
2019-03-17T17:59:32.176Z,1.47
2019-03-17T18:02:00.829Z,0.70
2019-03-17T18:04:29.441Z,0.80
2019-03-17T18:06:57.966Z,0.63
2019-03-17T18:09:26.600Z,1.20
2019-03-17T18:11:55.571Z,0.70
2019-03-17T18:14:26.037Z,1.42
2019-03-17T18:16:55.770Z,0.90
2019-03-17T18:19:27.332Z,1.35
2019-03-17T18:21:56.870Z,1.33
2019-03-17T18:24:25.866Z,1.10
2019-03-17T18:26:54.785Z,0.90
2019-03-17T18:29:23.879Z,1.20
2019-03-17T18:31:52.740Z,0.73
2019-03-17T18:34:21.999Z,0.80
2019-03-17T18:36:50.961Z,1.10
2019-03-17T18:39:20.154Z,0.57
2019-03-17T18:41:52.528Z,1.00
2019-03-17T18:44:21.616Z,0.90
2019-03-17T18:46:50.921Z,1.00
2019-03-17T18:49:19.713Z,1.10
2019-03-17T18:51:48.690Z,1.22
2019-03-17T18:54:17.393Z,1.30
2019-03-17T18:56:46.339Z,1.30
2019-03-17T18:59:17.778Z,1.62
2019-03-17T19:01:45.866Z,1.20
2019-03-17T19:04:16.674Z,1.30
2019-03-17T19:06:46.877Z,1.65
2019-03-17T19:09:17.012Z,1.30
2019-03-17T19:11:48.353Z,1.40
2019-03-17T19:14:18.936Z,1.13
2019-03-17T19:16:52.326Z,1.20
2019-03-17T19:19:25.893Z,1.40
2019-03-17T19:21:55.060Z,1.00
2019-03-17T19:24:24.257Z,1.20
2019-03-17T19:26:54.839Z,1.03
2019-03-17T19:29:24.722Z,0.67
2019-03-17T19:31:55.183Z,1.13
2019-03-17T19:34:24.291Z,0.90
2019-03-17T19:36:53.319Z,0.90
2019-03-17T19:39:22.375Z,1.07
2019-03-17T19:41:51.361Z,1.90
2019-03-17T19:44:24.607Z,0.40
2019-03-17T19:46:53.975Z,0.90
2019-03-17T19:49:23.916Z,1.40
2019-03-17T19:51:54.601Z,1.10
2019-03-17T19:54:24.004Z,1.13
2019-03-17T19:56:53.511Z,0.90
2019-03-17T19:59:27.254Z,0.90
2019-03-17T20:01:59.628Z,0.73
2019-03-17T20:04:35.187Z,1.25
2019-03-17T20:07:02.331Z,0.50
2019-03-17T20:09:31.316Z,0.90
2019-03-17T20:12:01.902Z,1.17
2019-03-17T20:14:30.703Z,1.00
2019-03-17T20:16:59.594Z,0.70
2019-03-17T20:19:28.445Z,0.90
2019-03-17T20:21:58.044Z,0.98
2019-03-17T20:24:26.934Z,1.20
2019-03-17T20:26:55.650Z,1.23
2019-03-17T20:29:24.487Z,1.10
2019-03-17T20:31:53.371Z,1.10
2019-03-17T20:34:22.163Z,1.82
2019-03-17T20:36:50.956Z,0.57
2019-03-17T20:39:19.526Z,1.07
2019-03-17T20:41:48.132Z,1.35
2019-03-17T20:44:16.703Z,1.45
2019-03-17T20:46:45.343Z,0.80
2019-03-17T20:49:14.827Z,0.75
2019-03-17T20:51:43.541Z,1.20
2019-03-17T20:54:12.288Z,1.43
2019-03-17T20:56:41.092Z,1.42
2019-03-17T20:59:10.125Z,1.10
2019-03-17T21:01:38.769Z,1.17
2019-03-17T21:04:17.811Z,1.57
2019-03-17T21:06:46.684Z,1.30
2019-03-17T21:09:15.389Z,1.05
2019-03-17T21:11:44.480Z,0.63
2019-03-17T21:14:13.483Z,0.80
2019-03-17T21:16:42.197Z,1.50
2019-03-17T21:19:35.415Z,0.70
2019-03-17T21:22:05.214Z,0.42
2019-03-17T21:24:33.806Z,0.40
2019-03-17T21:27:02.660Z,0.40
2019-03-17T21:29:31.940Z,0.90
2019-03-17T21:32:04.424Z,0.30
2019-03-17T21:34:33.171Z,0.60
2019-03-17T21:37:01.668Z,0.47
2019-03-17T21:39:33.590Z,0.90
2019-03-17T21:42:03.586Z,1.17
2019-03-17T21:44:32.608Z,1.40
2019-03-17T21:47:01.300Z,0.90
2019-03-17T21:49:30.279Z,0.90
2019-03-17T21:51:59.043Z,0.63
2019-03-17T21:54:27.817Z,1.20
2019-03-17T21:56:56.497Z,1.05
2019-03-17T21:59:25.394Z,1.02
2019-03-17T22:01:54.067Z,0.97
2019-03-17T22:04:23.156Z,0.80
2019-03-17T22:06:52.039Z,0.50
2019-03-17T22:09:21.708Z,0.75
2019-03-17T22:11:50.683Z,1.10
2019-03-17T22:14:19.374Z,0.20
2019-03-17T22:16:48.490Z,0.75
2019-03-17T22:19:17.493Z,1.37
2019-03-17T22:21:46.892Z,0.93
2019-03-17T22:24:15.933Z,0.60
2019-03-17T22:26:44.576Z,1.00
2019-03-17T22:29:13.186Z,0.37
2019-03-17T22:31:42.421Z,0.70
2019-03-17T22:34:11.256Z,0.90
2019-03-17T22:36:40.263Z,1.10
2019-03-17T22:39:11.290Z,0.73
2019-03-17T22:41:39.184Z,0.80
2019-03-17T22:44:08.165Z,0.70
2019-03-17T22:46:36.719Z,0.57
2019-03-17T22:49:05.646Z,0.70
2019-03-17T22:51:34.406Z,0.30
2019-03-17T22:54:03.058Z,0.80
2019-03-17T22:56:31.860Z,1.40
2019-03-17T22:59:00.555Z,1.00
2019-03-17T23:01:29.245Z,1.50
2019-03-17T23:03:57.972Z,1.23
2019-03-17T23:06:26.633Z,0.93
2019-03-17T23:08:55.267Z,0.83
2019-03-17T23:11:24.060Z,1.30
2019-03-17T23:13:52.874Z,1.03
2019-03-17T23:16:21.532Z,1.80
2019-03-17T23:18:50.128Z,0.40
2019-03-17T23:21:18.915Z,0.62
2019-03-17T23:23:47.616Z,0.87
2019-03-17T23:26:16.263Z,1.25
2019-03-17T23:28:44.895Z,1.20
2019-03-17T23:31:13.669Z,1.43
2019-03-17T23:33:42.332Z,1.20
2019-03-17T23:36:11.061Z,1.12
2019-03-17T23:38:39.773Z,0.90
2019-03-17T23:41:08.548Z,0.93
2019-03-17T23:43:37.275Z,2.33
2019-03-17T23:46:06.005Z,1.07
2019-03-17T23:48:34.739Z,1.87
2019-03-17T23:51:03.592Z,1.47
2019-03-17T23:53:32.277Z,0.90
2019-03-17T23:56:01.016Z,1.43
2019-03-17T23:58:29.736Z,1.80
